sensor_id;sensor_type;location;lat;lon;timestamp;temperature;humidity
14397;DHT22;50653;47.810;13.022;2023-08-01T00:00:47;20.30;99.90
14397;DHT22;50653;47.810;13.022;2023-08-01T00:03:13;20.40;99.90
14397;DHT22;50653;47.810;13.022;2023-08-01T00:05:40;20.40;99.90
14397;DHT22;50653;47.810;13.022;2023-08-01T00:08:13;20.30;99.90
14397;DHT22;50653;47.810;13.022;2023-08-01T00:10:40;20.20;99.90
14397;DHT22;50653;47.810;13.022;2023-08-01T00:13:06;20.30;99.90
14397;DHT22;50653;47.810;13.022;2023-08-01T00:15:31;20.40;99.90
14397;DHT22;50653;47.810;13.022;2023-08-01T00:17:57;20.30;99.90
14397;DHT22;50653;47.810;13.022;2023-08-01T00:20:22;20.30;99.90
14397;DHT22;50653;47.810;13.022;2023-08-01T00:22:48;20.30;99.90
14397;DHT22;50653;47.810;13.022;2023-08-01T00:25:14;20.20;99.90
14397;DHT22;50653;47.810;13.022;2023-08-01T00:27:39;20.20;99.90
14397;DHT22;50653;47.810;13.022;2023-08-01T00:30:06;20.00;99.90
14397;DHT22;50653;47.810;13.022;2023-08-01T00:32:32;20.00;99.90
14397;DHT22;50653;47.810;13.022;2023-08-01T00:34:57;19.90;99.90
14397;DHT22;50653;47.810;13.022;2023-08-01T00:37:23;19.90;99.90
14397;DHT22;50653;47.810;13.022;2023-08-01T00:39:49;19.90;99.90
14397;DHT22;50653;47.810;13.022;2023-08-01T00:42:15;20.00;99.90
14397;DHT22;50653;47.810;13.022;2023-08-01T00:44:41;20.00;99.90
14397;DHT22;50653;47.810;13.022;2023-08-01T00:47:07;20.10;99.90
14397;DHT22;50653;47.810;13.022;2023-08-01T00:49:34;20.10;99.90
14397;DHT22;50653;47.810;13.022;2023-08-01T00:51:59;20.00;99.90
14397;DHT22;50653;47.810;13.022;2023-08-01T00:54:25;19.80;99.90
14397;DHT22;50653;47.810;13.022;2023-08-01T00:56:52;20.00;99.90
14397;DHT22;50653;47.810;13.022;2023-08-01T00:59:18;19.70;99.90
14397;DHT22;50653;47.810;13.022;2023-08-01T01:01:44;19.80;99.90
14397;DHT22;50653;47.810;13.022;2023-08-01T01:04:09;19.80;99.90
14397;DHT22;50653;47.810;13.022;2023-08-01T01:06:47;19.80;99.90
14397;DHT22;50653;47.810;13.022;2023-08-01T01:09:18;19.80;99.90
14397;DHT22;50653;47.810;13.022;2023-08-01T01:11:44;19.70;99.90
14397;DHT22;50653;47.810;13.022;2023-08-01T01:14:10;19.70;99.90
14397;DHT22;50653;47.810;13.022;2023-08-01T01:16:36;19.80;99.90
14397;DHT22;50653;47.810;13.022;2023-08-01T01:19:05;19.80;99.90
14397;DHT22;50653;47.810;13.022;2023-08-01T01:21:32;19.90;99.90
14397;DHT22;50653;47.810;13.022;2023-08-01T01:24:38;19.80;99.90
14397;DHT22;50653;47.810;13.022;2023-08-01T01:27:05;19.50;99.90
14397;DHT22;50653;47.810;13.022;2023-08-01T01:29:33;19.60;99.90
14397;DHT22;50653;47.810;13.022;2023-08-01T01:32:00;19.70;99.90
14397;DHT22;50653;47.810;13.022;2023-08-01T01:34:27;19.70;99.90
14397;DHT22;50653;47.810;13.022;2023-08-01T01:36:53;19.70;99.90
14397;DHT22;50653;47.810;13.022;2023-08-01T01:39:20;19.80;99.90
14397;DHT22;50653;47.810;13.022;2023-08-01T01:41:46;19.80;99.90
14397;DHT22;50653;47.810;13.022;2023-08-01T01:44:11;19.70;99.90
14397;DHT22;50653;47.810;13.022;2023-08-01T01:46:37;19.60;99.90
14397;DHT22;50653;47.810;13.022;2023-08-01T01:49:03;19.60;99.90
14397;DHT22;50653;47.810;13.022;2023-08-01T01:51:29;19.50;99.90
14397;DHT22;50653;47.810;13.022;2023-08-01T01:53:55;19.70;99.90
14397;DHT22;50653;47.810;13.022;2023-08-01T01:56:22;19.80;99.90
14397;DHT22;50653;47.810;13.022;2023-08-01T01:58:47;19.70;99.90
14397;DHT22;50653;47.810;13.022;2023-08-01T02:01:13;19.80;99.90
14397;DHT22;50653;47.810;13.022;2023-08-01T02:03:39;19.80;99.90
14397;DHT22;50653;47.810;13.022;2023-08-01T02:06:04;19.80;99.90
14397;DHT22;50653;47.810;13.022;2023-08-01T02:08:31;20.00;99.90
14397;DHT22;50653;47.810;13.022;2023-08-01T02:10:56;20.00;99.90
14397;DHT22;50653;47.810;13.022;2023-08-01T02:13:25;19.90;99.90
14397;DHT22;50653;47.810;13.022;2023-08-01T02:15:51;19.80;99.90
14397;DHT22;50653;47.810;13.022;2023-08-01T02:18:16;19.80;99.90
14397;DHT22;50653;47.810;13.022;2023-08-01T02:20:42;19.80;99.90
14397;DHT22;50653;47.810;13.022;2023-08-01T02:23:07;19.70;99.90
14397;DHT22;50653;47.810;13.022;2023-08-01T02:25:38;19.70;99.90
14397;DHT22;50653;47.810;13.022;2023-08-01T02:28:04;19.70;99.90
14397;DHT22;50653;47.810;13.022;2023-08-01T02:30:30;19.60;99.90
14397;DHT22;50653;47.810;13.022;2023-08-01T02:32:55;19.60;99.90
14397;DHT22;50653;47.810;13.022;2023-08-01T02:35:21;19.60;99.90
14397;DHT22;50653;47.810;13.022;2023-08-01T02:37:46;19.60;99.90
14397;DHT22;50653;47.810;13.022;2023-08-01T02:40:12;19.60;99.90
14397;DHT22;50653;47.810;13.022;2023-08-01T02:42:38;19.60;99.90
14397;DHT22;50653;47.810;13.022;2023-08-01T02:45:04;19.60;99.90
14397;DHT22;50653;47.810;13.022;2023-08-01T02:47:29;19.50;99.90
14397;DHT22;50653;47.810;13.022;2023-08-01T02:49:55;19.60;99.90
14397;DHT22;50653;47.810;13.022;2023-08-01T02:52:21;19.50;99.90
14397;DHT22;50653;47.810;13.022;2023-08-01T02:54:46;19.50;99.90
14397;DHT22;50653;47.810;13.022;2023-08-01T02:57:12;19.50;99.90
14397;DHT22;50653;47.810;13.022;2023-08-01T02:59:37;19.50;99.90
14397;DHT22;50653;47.810;13.022;2023-08-01T03:02:03;19.50;99.90
14397;DHT22;50653;47.810;13.022;2023-08-01T03:04:29;19.40;99.90
14397;DHT22;50653;47.810;13.022;2023-08-01T03:06:54;19.40;99.90
14397;DHT22;50653;47.810;13.022;2023-08-01T03:09:20;19.20;99.90
14397;DHT22;50653;47.810;13.022;2023-08-01T03:11:45;19.20;99.90
14397;DHT22;50653;47.810;13.022;2023-08-01T03:14:11;19.20;99.90
14397;DHT22;50653;47.810;13.022;2023-08-01T03:16:37;19.20;99.90
14397;DHT22;50653;47.810;13.022;2023-08-01T03:19:02;19.20;99.90
14397;DHT22;50653;47.810;13.022;2023-08-01T03:21:34;19.10;99.90
14397;DHT22;50653;47.810;13.022;2023-08-01T03:24:01;19.20;99.90
14397;DHT22;50653;47.810;13.022;2023-08-01T03:26:27;19.30;99.90
14397;DHT22;50653;47.810;13.022;2023-08-01T03:28:54;19.20;99.90
14397;DHT22;50653;47.810;13.022;2023-08-01T03:31:23;19.20;99.90
14397;DHT22;50653;47.810;13.022;2023-08-01T03:33:49;19.00;99.90
14397;DHT22;50653;47.810;13.022;2023-08-01T03:36:15;19.00;99.90
14397;DHT22;50653;47.810;13.022;2023-08-01T03:38:40;18.90;99.90
14397;DHT22;50653;47.810;13.022;2023-08-01T03:41:06;18.90;99.90
14397;DHT22;50653;47.810;13.022;2023-08-01T03:43:32;18.90;99.90
14397;DHT22;50653;47.810;13.022;2023-08-01T03:45:57;18.90;99.90
14397;DHT22;50653;47.810;13.022;2023-08-01T03:48:23;18.80;99.90
14397;DHT22;50653;47.810;13.022;2023-08-01T03:50:49;18.60;99.90
14397;DHT22;50653;47.810;13.022;2023-08-01T03:53:15;18.60;99.90
14397;DHT22;50653;47.810;13.022;2023-08-01T03:55:40;18.80;99.90
14397;DHT22;50653;47.810;13.022;2023-08-01T03:58:07;18.70;99.90
14397;DHT22;50653;47.810;13.022;2023-08-01T04:00:33;18.60;99.90
14397;DHT22;50653;47.810;13.022;2023-08-01T04:03:00;18.70;99.90
14397;DHT22;50653;47.810;13.022;2023-08-01T04:05:25;18.60;99.90
14397;DHT22;50653;47.810;13.022;2023-08-01T04:07:51;18.30;99.90
14397;DHT22;50653;47.810;13.022;2023-08-01T04:10:21;18.40;99.90
14397;DHT22;50653;47.810;13.022;2023-08-01T04:12:46;18.70;99.90
14397;DHT22;50653;47.810;13.022;2023-08-01T04:15:12;18.70;99.90
14397;DHT22;50653;47.810;13.022;2023-08-01T04:17:38;18.80;99.90
14397;DHT22;50653;47.810;13.022;2023-08-01T04:20:04;18.90;99.90
14397;DHT22;50653;47.810;13.022;2023-08-01T04:22:29;18.80;99.90
14397;DHT22;50653;47.810;13.022;2023-08-01T04:24:55;18.80;99.90
14397;DHT22;50653;47.810;13.022;2023-08-01T04:27:21;18.70;99.90
14397;DHT22;50653;47.810;13.022;2023-08-01T04:29:47;18.60;99.90
14397;DHT22;50653;47.810;13.022;2023-08-01T04:32:13;18.50;99.90
14397;DHT22;50653;47.810;13.022;2023-08-01T04:34:41;18.60;99.90
14397;DHT22;50653;47.810;13.022;2023-08-01T04:37:06;18.50;99.90
14397;DHT22;50653;47.810;13.022;2023-08-01T04:39:32;18.60;99.90
14397;DHT22;50653;47.810;13.022;2023-08-01T04:41:58;18.60;99.90
14397;DHT22;50653;47.810;13.022;2023-08-01T04:44:23;18.60;99.90
14397;DHT22;50653;47.810;13.022;2023-08-01T04:46:52;18.40;99.90
14397;DHT22;50653;47.810;13.022;2023-08-01T04:49:17;18.30;99.90
14397;DHT22;50653;47.810;13.022;2023-08-01T04:51:44;18.20;99.90
14397;DHT22;50653;47.810;13.022;2023-08-01T04:54:10;18.20;99.90
14397;DHT22;50653;47.810;13.022;2023-08-01T04:56:36;18.20;99.90
14397;DHT22;50653;47.810;13.022;2023-08-01T04:59:02;18.30;99.90
14397;DHT22;50653;47.810;13.022;2023-08-01T05:01:28;18.20;99.90
14397;DHT22;50653;47.810;13.022;2023-08-01T05:03:53;18.30;99.90
14397;DHT22;50653;47.810;13.022;2023-08-01T05:06:19;18.40;99.90
14397;DHT22;50653;47.810;13.022;2023-08-01T05:08:45;18.50;99.90
14397;DHT22;50653;47.810;13.022;2023-08-01T05:11:10;18.60;99.90
14397;DHT22;50653;47.810;13.022;2023-08-01T05:13:36;18.60;99.90
14397;DHT22;50653;47.810;13.022;2023-08-01T05:16:02;18.60;99.90
14397;DHT22;50653;47.810;13.022;2023-08-01T05:18:28;18.60;99.90
14397;DHT22;50653;47.810;13.022;2023-08-01T05:21:04;18.50;99.90
14397;DHT22;50653;47.810;13.022;2023-08-01T05:23:34;18.50;99.90
14397;DHT22;50653;47.810;13.022;2023-08-01T05:26:03;18.40;99.90
14397;DHT22;50653;47.810;13.022;2023-08-01T05:28:28;18.40;99.90
14397;DHT22;50653;47.810;13.022;2023-08-01T05:30:54;18.20;99.90
14397;DHT22;50653;47.810;13.022;2023-08-01T05:33:20;18.20;99.90
14397;DHT22;50653;47.810;13.022;2023-08-01T05:35:46;18.30;99.90
14397;DHT22;50653;47.810;13.022;2023-08-01T05:38:11;18.40;99.90
14397;DHT22;50653;47.810;13.022;2023-08-01T05:40:37;18.50;99.90
14397;DHT22;50653;47.810;13.022;2023-08-01T05:43:03;18.50;99.90
14397;DHT22;50653;47.810;13.022;2023-08-01T05:45:30;18.20;99.90
14397;DHT22;50653;47.810;13.022;2023-08-01T05:47:56;18.00;99.90
14397;DHT22;50653;47.810;13.022;2023-08-01T05:50:21;17.80;99.90
14397;DHT22;50653;47.810;13.022;2023-08-01T05:52:47;17.80;99.90
14397;DHT22;50653;47.810;13.022;2023-08-01T05:55:13;17.80;99.90
14397;DHT22;50653;47.810;13.022;2023-08-01T05:57:47;17.70;99.90
14397;DHT22;50653;47.810;13.022;2023-08-01T06:00:15;17.90;99.90
14397;DHT22;50653;47.810;13.022;2023-08-01T06:02:41;17.90;99.90
14397;DHT22;50653;47.810;13.022;2023-08-01T06:05:07;18.00;99.90
14397;DHT22;50653;47.810;13.022;2023-08-01T06:07:36;18.00;99.90
14397;DHT22;50653;47.810;13.022;2023-08-01T06:10:02;17.90;99.90
14397;DHT22;50653;47.810;13.022;2023-08-01T06:12:32;17.90;99.90
14397;DHT22;50653;47.810;13.022;2023-08-01T06:15:01;18.10;99.90
14397;DHT22;50653;47.810;13.022;2023-08-01T06:17:27;18.20;99.90
14397;DHT22;50653;47.810;13.022;2023-08-01T06:19:53;18.40;99.90
14397;DHT22;50653;47.810;13.022;2023-08-01T06:22:24;18.40;99.90
14397;DHT22;50653;47.810;13.022;2023-08-01T06:24:53;18.30;99.90
14397;DHT22;50653;47.810;13.022;2023-08-01T06:27:19;18.30;99.90
14397;DHT22;50653;47.810;13.022;2023-08-01T06:29:45;18.20;99.90
14397;DHT22;50653;47.810;13.022;2023-08-01T06:32:11;18.20;99.90
14397;DHT22;50653;47.810;13.022;2023-08-01T06:34:37;18.10;99.90
14397;DHT22;50653;47.810;13.022;2023-08-01T06:37:11;18.00;99.90
14397;DHT22;50653;47.810;13.022;2023-08-01T06:39:38;17.90;99.90
14397;DHT22;50653;47.810;13.022;2023-08-01T06:42:04;17.90;99.90
14397;DHT22;50653;47.810;13.022;2023-08-01T06:44:33;17.90;99.90
14397;DHT22;50653;47.810;13.022;2023-08-01T06:46:59;17.80;99.90
14397;DHT22;50653;47.810;13.022;2023-08-01T06:49:51;17.90;99.90
14397;DHT22;50653;47.810;13.022;2023-08-01T06:56:01;17.90;99.90
14397;DHT22;50653;47.810;13.022;2023-08-01T06:58:27;18.00;99.90
14397;DHT22;50653;47.810;13.022;2023-08-01T07:00:52;18.00;99.90
14397;DHT22;50653;47.810;13.022;2023-08-01T07:03:18;17.90;99.90
14397;DHT22;50653;47.810;13.022;2023-08-01T07:05:44;17.90;99.90
14397;DHT22;50653;47.810;13.022;2023-08-01T07:08:25;18.00;99.90
14397;DHT22;50653;47.810;13.022;2023-08-01T07:10:51;18.00;99.90
14397;DHT22;50653;47.810;13.022;2023-08-01T07:13:17;18.00;99.90
14397;DHT22;50653;47.810;13.022;2023-08-01T07:15:45;18.00;99.90
14397;DHT22;50653;47.810;13.022;2023-08-01T07:18:14;18.20;99.90
14397;DHT22;50653;47.810;13.022;2023-08-01T07:20:40;18.10;99.90
14397;DHT22;50653;47.810;13.022;2023-08-01T07:23:08;18.10;99.90
14397;DHT22;50653;47.810;13.022;2023-08-01T07:25:34;18.10;99.90
14397;DHT22;50653;47.810;13.022;2023-08-01T07:28:03;18.20;99.90
14397;DHT22;50653;47.810;13.022;2023-08-01T07:30:29;18.20;99.90
14397;DHT22;50653;47.810;13.022;2023-08-01T07:32:55;18.20;99.90
14397;DHT22;50653;47.810;13.022;2023-08-01T07:35:21;18.20;99.90
14397;DHT22;50653;47.810;13.022;2023-08-01T07:37:46;18.30;99.90
14397;DHT22;50653;47.810;13.022;2023-08-01T07:40:12;18.40;99.90
14397;DHT22;50653;47.810;13.022;2023-08-01T07:42:38;18.20;99.90
14397;DHT22;50653;47.810;13.022;2023-08-01T07:45:04;18.10;99.90
14397;DHT22;50653;47.810;13.022;2023-08-01T07:47:30;18.00;99.90
14397;DHT22;50653;47.810;13.022;2023-08-01T07:50:04;17.90;99.90
14397;DHT22;50653;47.810;13.022;2023-08-01T07:52:29;17.90;99.90
14397;DHT22;50653;47.810;13.022;2023-08-01T07:54:55;18.00;99.90
14397;DHT22;50653;47.810;13.022;2023-08-01T07:57:23;18.00;99.90
14397;DHT22;50653;47.810;13.022;2023-08-01T07:59:48;18.20;99.90
14397;DHT22;50653;47.810;13.022;2023-08-01T08:02:14;18.20;99.90
14397;DHT22;50653;47.810;13.022;2023-08-01T08:04:40;18.30;99.90
14397;DHT22;50653;47.810;13.022;2023-08-01T08:07:06;18.40;99.90
14397;DHT22;50653;47.810;13.022;2023-08-01T08:09:34;18.40;99.90
14397;DHT22;50653;47.810;13.022;2023-08-01T08:12:00;18.30;99.90
14397;DHT22;50653;47.810;13.022;2023-08-01T08:14:26;18.40;99.90
14397;DHT22;50653;47.810;13.022;2023-08-01T08:16:52;18.30;99.90
14397;DHT22;50653;47.810;13.022;2023-08-01T08:19:18;18.40;99.90
14397;DHT22;50653;47.810;13.022;2023-08-01T08:21:44;18.30;99.90
14397;DHT22;50653;47.810;13.022;2023-08-01T08:24:10;18.10;99.90
14397;DHT22;50653;47.810;13.022;2023-08-01T08:26:36;18.10;99.90
14397;DHT22;50653;47.810;13.022;2023-08-01T08:29:04;17.80;99.90
14397;DHT22;50653;47.810;13.022;2023-08-01T08:31:31;17.70;99.90
14397;DHT22;50653;47.810;13.022;2023-08-01T08:33:56;17.60;99.90
14397;DHT22;50653;47.810;13.022;2023-08-01T08:36:22;17.60;99.90
14397;DHT22;50653;47.810;13.022;2023-08-01T08:38:48;17.70;99.90
14397;DHT22;50653;47.810;13.022;2023-08-01T08:41:20;17.80;99.90
14397;DHT22;50653;47.810;13.022;2023-08-01T08:43:48;17.60;99.90
14397;DHT22;50653;47.810;13.022;2023-08-01T08:46:16;17.50;99.90
14397;DHT22;50653;47.810;13.022;2023-08-01T08:48:42;17.60;99.90
14397;DHT22;50653;47.810;13.022;2023-08-01T08:51:10;17.30;99.90
14397;DHT22;50653;47.810;13.022;2023-08-01T08:53:36;17.40;99.90
14397;DHT22;50653;47.810;13.022;2023-08-01T08:56:03;17.50;99.90
14397;DHT22;50653;47.810;13.022;2023-08-01T08:58:30;17.50;99.90
14397;DHT22;50653;47.810;13.022;2023-08-01T09:00:58;17.50;99.90
14397;DHT22;50653;47.810;13.022;2023-08-01T09:03:25;17.40;99.90
14397;DHT22;50653;47.810;13.022;2023-08-01T09:08:35;17.40;99.90
14397;DHT22;50653;47.810;13.022;2023-08-01T09:11:03;17.20;99.90
14397;DHT22;50653;47.810;13.022;2023-08-01T09:13:29;17.30;99.90
14397;DHT22;50653;47.810;13.022;2023-08-01T09:15:56;17.40;99.90
14397;DHT22;50653;47.810;13.022;2023-08-01T09:18:22;17.40;99.90
14397;DHT22;50653;47.810;13.022;2023-08-01T09:20:49;17.30;99.90
14397;DHT22;50653;47.810;13.022;2023-08-01T09:23:16;17.10;99.90
14397;DHT22;50653;47.810;13.022;2023-08-01T09:25:43;17.10;99.90
14397;DHT22;50653;47.810;13.022;2023-08-01T09:30:46;17.10;99.90
14397;DHT22;50653;47.810;13.022;2023-08-01T09:33:12;17.20;99.90
14397;DHT22;50653;47.810;13.022;2023-08-01T09:35:38;17.20;99.90
14397;DHT22;50653;47.810;13.022;2023-08-01T09:38:04;17.20;99.90
14397;DHT22;50653;47.810;13.022;2023-08-01T09:40:37;17.30;99.90
14397;DHT22;50653;47.810;13.022;2023-08-01T09:43:04;17.40;99.90
14397;DHT22;50653;47.810;13.022;2023-08-01T09:45:30;17.50;99.90
14397;DHT22;50653;47.810;13.022;2023-08-01T09:47:58;17.60;99.90
14397;DHT22;50653;47.810;13.022;2023-08-01T09:50:30;17.50;99.90
14397;DHT22;50653;47.810;13.022;2023-08-01T09:53:06;17.70;99.90
14397;DHT22;50653;47.810;13.022;2023-08-01T09:55:35;17.70;99.90
14397;DHT22;50653;47.810;13.022;2023-08-01T09:58:01;17.80;99.90
14397;DHT22;50653;47.810;13.022;2023-08-01T10:00:28;17.90;99.90
14397;DHT22;50653;47.810;13.022;2023-08-01T10:02:59;18.00;99.90
14397;DHT22;50653;47.810;13.022;2023-08-01T10:05:32;18.00;99.90
14397;DHT22;50653;47.810;13.022;2023-08-01T10:08:02;18.00;99.90
14397;DHT22;50653;47.810;13.022;2023-08-01T10:10:35;18.00;99.90
14397;DHT22;50653;47.810;13.022;2023-08-01T10:13:01;18.00;99.90
14397;DHT22;50653;47.810;13.022;2023-08-01T10:15:29;18.00;99.90
14397;DHT22;50653;47.810;13.022;2023-08-01T10:17:57;18.10;99.90
14397;DHT22;50653;47.810;13.022;2023-08-01T10:20:24;18.00;99.90
14397;DHT22;50653;47.810;13.022;2023-08-01T10:22:53;17.90;99.90
14397;DHT22;50653;47.810;13.022;2023-08-01T10:25:20;17.90;99.90
14397;DHT22;50653;47.810;13.022;2023-08-01T10:28:10;17.80;99.90
14397;DHT22;50653;47.810;13.022;2023-08-01T10:30:36;17.90;99.90
14397;DHT22;50653;47.810;13.022;2023-08-01T10:33:07;17.90;99.90
14397;DHT22;50653;47.810;13.022;2023-08-01T10:35:41;17.60;99.90
14397;DHT22;50653;47.810;13.022;2023-08-01T10:38:10;17.70;99.90
14397;DHT22;50653;47.810;13.022;2023-08-01T10:40:38;17.60;99.90
14397;DHT22;50653;47.810;13.022;2023-08-01T10:43:05;17.50;99.90
14397;DHT22;50653;47.810;13.022;2023-08-01T10:45:32;17.40;99.90
14397;DHT22;50653;47.810;13.022;2023-08-01T10:48:09;17.50;99.90
14397;DHT22;50653;47.810;13.022;2023-08-01T10:50:35;17.50;99.90
14397;DHT22;50653;47.810;13.022;2023-08-01T10:53:08;17.60;99.90
14397;DHT22;50653;47.810;13.022;2023-08-01T10:55:44;17.60;99.90
14397;DHT22;50653;47.810;13.022;2023-08-01T10:58:13;17.60;99.90
14397;DHT22;50653;47.810;13.022;2023-08-01T11:00:41;17.60;99.90
14397;DHT22;50653;47.810;13.022;2023-08-01T11:03:09;17.70;99.90
14397;DHT22;50653;47.810;13.022;2023-08-01T11:05:37;17.70;99.90
14397;DHT22;50653;47.810;13.022;2023-08-01T11:08:06;17.70;99.90
14397;DHT22;50653;47.810;13.022;2023-08-01T11:10:33;17.80;99.90
14397;DHT22;50653;47.810;13.022;2023-08-01T11:13:02;18.00;99.90
14397;DHT22;50653;47.810;13.022;2023-08-01T11:15:28;18.10;99.90
14397;DHT22;50653;47.810;13.022;2023-08-01T11:17:55;18.00;99.90
14397;DHT22;50653;47.810;13.022;2023-08-01T11:20:23;18.10;99.90
14397;DHT22;50653;47.810;13.022;2023-08-01T11:22:58;18.10;99.90
14397;DHT22;50653;47.810;13.022;2023-08-01T11:25:38;18.00;99.90
14397;DHT22;50653;47.810;13.022;2023-08-01T11:28:13;17.90;99.90
14397;DHT22;50653;47.810;13.022;2023-08-01T11:30:43;18.00;99.90
14397;DHT22;50653;47.810;13.022;2023-08-01T11:33:15;18.00;99.90
14397;DHT22;50653;47.810;13.022;2023-08-01T11:35:43;18.00;99.90
14397;DHT22;50653;47.810;13.022;2023-08-01T11:38:09;17.70;99.90
14397;DHT22;50653;47.810;13.022;2023-08-01T11:40:38;17.70;99.90
14397;DHT22;50653;47.810;13.022;2023-08-01T11:43:04;17.70;99.90
14397;DHT22;50653;47.810;13.022;2023-08-01T11:45:30;17.70;99.90
14397;DHT22;50653;47.810;13.022;2023-08-01T11:47:56;17.70;99.90
14397;DHT22;50653;47.810;13.022;2023-08-01T11:50:25;17.70;99.90
14397;DHT22;50653;47.810;13.022;2023-08-01T11:52:52;17.60;99.90
14397;DHT22;50653;47.810;13.022;2023-08-01T11:55:26;17.60;99.90
14397;DHT22;50653;47.810;13.022;2023-08-01T11:57:53;17.60;99.90
14397;DHT22;50653;47.810;13.022;2023-08-01T12:00:24;17.60;99.90
14397;DHT22;50653;47.810;13.022;2023-08-01T12:02:50;17.70;99.90
14397;DHT22;50653;47.810;13.022;2023-08-01T12:05:22;17.90;99.90
14397;DHT22;50653;47.810;13.022;2023-08-01T12:07:49;17.90;99.90
14397;DHT22;50653;47.810;13.022;2023-08-01T12:10:14;17.80;99.90
14397;DHT22;50653;47.810;13.022;2023-08-01T12:12:45;17.70;99.90
14397;DHT22;50653;47.810;13.022;2023-08-01T12:15:15;17.50;99.90
14397;DHT22;50653;47.810;13.022;2023-08-01T12:17:43;17.50;99.90
14397;DHT22;50653;47.810;13.022;2023-08-01T12:20:09;17.40;99.90
14397;DHT22;50653;47.810;13.022;2023-08-01T12:22:35;17.40;99.90
14397;DHT22;50653;47.810;13.022;2023-08-01T12:25:02;17.50;99.90
14397;DHT22;50653;47.810;13.022;2023-08-01T12:27:30;17.50;99.90
14397;DHT22;50653;47.810;13.022;2023-08-01T12:29:56;17.50;99.90
14397;DHT22;50653;47.810;13.022;2023-08-01T12:32:22;17.50;99.90
14397;DHT22;50653;47.810;13.022;2023-08-01T12:34:48;17.50;99.90
14397;DHT22;50653;47.810;13.022;2023-08-01T12:37:14;17.50;99.90
14397;DHT22;50653;47.810;13.022;2023-08-01T12:39:40;17.60;99.90
14397;DHT22;50653;47.810;13.022;2023-08-01T12:42:06;17.60;99.90
14397;DHT22;50653;47.810;13.022;2023-08-01T12:44:32;17.60;99.90
14397;DHT22;50653;47.810;13.022;2023-08-01T12:46:58;17.60;99.90
14397;DHT22;50653;47.810;13.022;2023-08-01T12:49:24;17.60;99.90
14397;DHT22;50653;47.810;13.022;2023-08-01T12:51:50;17.50;99.90
14397;DHT22;50653;47.810;13.022;2023-08-01T12:54:18;17.60;99.90
14397;DHT22;50653;47.810;13.022;2023-08-01T12:56:44;17.60;99.90
14397;DHT22;50653;47.810;13.022;2023-08-01T12:59:10;17.60;99.90
14397;DHT22;50653;47.810;13.022;2023-08-01T13:01:36;17.70;99.90
14397;DHT22;50653;47.810;13.022;2023-08-01T13:04:04;17.90;99.90
14397;DHT22;50653;47.810;13.022;2023-08-01T13:06:30;18.10;99.90
14397;DHT22;50653;47.810;13.022;2023-08-01T13:08:56;18.10;99.90
14397;DHT22;50653;47.810;13.022;2023-08-01T13:11:22;18.20;99.90
14397;DHT22;50653;47.810;13.022;2023-08-01T13:13:48;18.40;99.90
14397;DHT22;50653;47.810;13.022;2023-08-01T13:16:14;18.60;99.90
14397;DHT22;50653;47.810;13.022;2023-08-01T13:18:41;18.60;99.90
14397;DHT22;50653;47.810;13.022;2023-08-01T13:21:09;18.60;99.90
14397;DHT22;50653;47.810;13.022;2023-08-01T13:23:36;18.50;99.90
14397;DHT22;50653;47.810;13.022;2023-08-01T13:26:02;18.50;99.90
14397;DHT22;50653;47.810;13.022;2023-08-01T13:28:28;18.30;99.90
14397;DHT22;50653;47.810;13.022;2023-08-01T13:30:54;18.50;99.90
14397;DHT22;50653;47.810;13.022;2023-08-01T13:33:20;18.60;99.90
14397;DHT22;50653;47.810;13.022;2023-08-01T13:35:45;18.60;99.90
14397;DHT22;50653;47.810;13.022;2023-08-01T13:38:11;18.40;99.90
14397;DHT22;50653;47.810;13.022;2023-08-01T13:40:40;18.40;99.90
14397;DHT22;50653;47.810;13.022;2023-08-01T13:43:06;18.20;99.90
14397;DHT22;50653;47.810;13.022;2023-08-01T13:45:34;18.10;99.90
14397;DHT22;50653;47.810;13.022;2023-08-01T13:48:00;18.00;99.90
14397;DHT22;50653;47.810;13.022;2023-08-01T13:50:28;18.20;99.90
14397;DHT22;50653;47.810;13.022;2023-08-01T13:52:54;18.20;99.90
14397;DHT22;50653;47.810;13.022;2023-08-01T13:55:20;18.30;99.90
14397;DHT22;50653;47.810;13.022;2023-08-01T13:57:46;18.40;99.90
14397;DHT22;50653;47.810;13.022;2023-08-01T14:00:12;18.50;99.90
14397;DHT22;50653;47.810;13.022;2023-08-01T14:02:38;18.70;99.90
14397;DHT22;50653;47.810;13.022;2023-08-01T14:05:04;18.70;99.90
14397;DHT22;50653;47.810;13.022;2023-08-01T14:07:30;18.70;99.90
14397;DHT22;50653;47.810;13.022;2023-08-01T14:09:56;18.50;99.90
14397;DHT22;50653;47.810;13.022;2023-08-01T14:12:23;18.40;99.90
14397;DHT22;50653;47.810;13.022;2023-08-01T14:14:52;18.40;99.90
14397;DHT22;50653;47.810;13.022;2023-08-01T14:17:18;18.40;99.90
14397;DHT22;50653;47.810;13.022;2023-08-01T14:19:50;18.60;99.90
14397;DHT22;50653;47.810;13.022;2023-08-01T14:22:40;18.70;99.90
14397;DHT22;50653;47.810;13.022;2023-08-01T14:25:12;18.80;99.90
14397;DHT22;50653;47.810;13.022;2023-08-01T14:31:02;18.80;99.90
14397;DHT22;50653;47.810;13.022;2023-08-01T14:37:30;18.50;99.90
14397;DHT22;50653;47.810;13.022;2023-08-01T14:39:58;18.60;99.90
14397;DHT22;50653;47.810;13.022;2023-08-01T14:42:26;18.70;99.90
14397;DHT22;50653;47.810;13.022;2023-08-01T14:44:52;18.80;99.90
14397;DHT22;50653;47.810;13.022;2023-08-01T14:47:20;19.00;99.90
14397;DHT22;50653;47.810;13.022;2023-08-01T14:49:46;18.90;99.90
14397;DHT22;50653;47.810;13.022;2023-08-01T14:52:12;18.90;99.90
14397;DHT22;50653;47.810;13.022;2023-08-01T14:54:38;18.80;99.90
14397;DHT22;50653;47.810;13.022;2023-08-01T14:57:07;19.00;99.90
14397;DHT22;50653;47.810;13.022;2023-08-01T14:59:33;19.20;99.90
14397;DHT22;50653;47.810;13.022;2023-08-01T15:01:59;19.20;99.90
14397;DHT22;50653;47.810;13.022;2023-08-01T15:04:25;19.20;99.90
14397;DHT22;50653;47.810;13.022;2023-08-01T15:06:52;19.30;99.90
14397;DHT22;50653;47.810;13.022;2023-08-01T15:09:17;19.30;99.90
14397;DHT22;50653;47.810;13.022;2023-08-01T15:11:44;19.30;99.90
14397;DHT22;50653;47.810;13.022;2023-08-01T15:14:10;19.50;99.90
14397;DHT22;50653;47.810;13.022;2023-08-01T15:16:38;19.40;99.90
14397;DHT22;50653;47.810;13.022;2023-08-01T15:19:05;19.30;99.90
14397;DHT22;50653;47.810;13.022;2023-08-01T15:21:30;19.40;99.90
14397;DHT22;50653;47.810;13.022;2023-08-01T15:23:56;19.50;99.90
14397;DHT22;50653;47.810;13.022;2023-08-01T15:26:22;19.50;99.90
14397;DHT22;50653;47.810;13.022;2023-08-01T15:28:48;19.30;99.90
14397;DHT22;50653;47.810;13.022;2023-08-01T15:31:13;19.30;99.90